Time;durP1;ratioP1;P1;durP2;ratioP2;P2;SDS_P1;SDS_P2;PMS_P1;PMS_P2;Temp;Humidity;BMP_temperature;BMP_pressure;BME280_temperature;BME280_humidity;BME280_pressure;Samples;Min_cycle;Max_cycle;Signal;HPM_P1;HPM_P2
2022/09/22 00:00:28;;;;;;;18.58;17.58;;;;;;;;;;5099494;28;20449;-81
2022/09/22 00:02:56;;;;;;;18.30;17.20;;;;;;;;;;5102561;28;20218;-81
2022/09/22 00:05:24;;;;;;;19.20;17.90;;;;;;;;;;5103706;28;20500;-80
2022/09/22 00:07:53;;;;;;;17.90;16.97;;;;;;;;;;5103132;28;20467;-81
2022/09/22 00:10:20;;;;;;;18.33;17.40;;;;;;;;;;5103594;28;20412;-81
2022/09/22 00:12:48;;;;;;;19.10;18.00;;;;;;;;;;5102439;28;20258;-80
2022/09/22 00:15:16;;;;;;;17.38;16.58;;;;;;;;;;5103159;28;20224;-81
2022/09/22 00:17:43;;;;;;;18.10;16.83;;;;;;;;;;5103285;28;20217;-81
2022/09/22 00:20:12;;;;;;;18.48;17.45;;;;;;;;;;5103520;28;20203;-81
2022/09/22 00:22:39;;;;;;;17.70;16.80;;;;;;;;;;5101647;28;20233;-81
2022/09/22 00:25:09;;;;;;;17.63;16.75;;;;;;;;;;5103294;28;20513;-81
2022/09/22 00:27:38;;;;;;;20.43;19.23;;;;;;;;;;5103065;28;20229;-81
2022/09/22 00:30:06;;;;;;;18.30;17.30;;;;;;;;;;5102790;28;20509;-81
2022/09/22 00:32:34;;;;;;;18.35;17.45;;;;;;;;;;5101923;28;20313;-81
2022/09/22 00:35:01;;;;;;;19.20;18.20;;;;;;;;;;5102522;28;20284;-80
2022/09/22 00:37:29;;;;;;;18.85;17.80;;;;;;;;;;5102253;28;20207;-81
2022/09/22 00:39:56;;;;;;;18.85;17.85;;;;;;;;;;5102621;28;20271;-81
2022/09/22 00:42:25;;;;;;;18.50;17.60;;;;;;;;;;5101828;28;20238;-81
2022/09/22 00:44:52;;;;;;;19.15;17.95;;;;;;;;;;5102467;28;20502;-81
2022/09/22 00:47:31;;;;;;;18.83;17.83;;;;;;;;;;5102966;28;20209;-81
2022/09/22 00:50:01;;;;;;;18.38;17.40;;;;;;;;;;5102213;28;20209;-81
2022/09/22 00:52:30;;;;;;;18.33;17.33;;;;;;;;;;5102259;28;20233;-81
2022/09/22 00:54:59;;;;;;;19.60;18.30;;;;;;;;;;5102515;28;20440;-81
2022/09/22 00:57:31;;;;;;;18.77;17.75;;;;;;;;;;5102103;28;20453;-81
2022/09/22 00:59:58;;;;;;;18.90;17.90;;;;;;;;;;5102857;28;20190;-81
2022/09/22 01:02:26;;;;;;;18.52;17.42;;;;;;;;;;5100939;28;20463;-81
2022/09/22 01:04:53;;;;;;;18.30;17.20;;;;;;;;;;5102346;28;20248;-81
2022/09/22 01:07:22;;;;;;;18.40;17.40;;;;;;;;;;5101743;28;20206;-81
2022/09/22 01:09:50;;;;;;;18.50;17.50;;;;;;;;;;5102106;28;20451;-81
2022/09/22 01:12:18;;;;;;;19.35;18.02;;;;;;;;;;5100666;28;20706;-81
2022/09/22 01:14:58;;;;;;;18.17;17.08;;;;;;;;;;5101533;28;20220;-80
2022/09/22 01:17:33;;;;;;;18.40;17.40;;;;;;;;;;5102229;28;20599;-81
2022/09/22 01:20:10;;;;;;;18.43;17.43;;;;;;;;;;5101858;28;20193;-81
2022/09/22 01:22:46;;;;;;;18.92;17.95;;;;;;;;;;5101225;28;20510;-81
2022/09/22 01:25:36;;;;;;;18.50;17.40;;;;;;;;;;5101775;28;20210;-81
2022/09/22 01:28:14;;;;;;;18.83;17.70;;;;;;;;;;5101945;28;20185;-81
2022/09/22 01:30:44;;;;;;;18.45;17.45;;;;;;;;;;5101884;28;20561;-81
2022/09/22 01:33:24;;;;;;;18.67;17.57;;;;;;;;;;5100406;28;20234;-80
2022/09/22 01:35:59;;;;;;;18.15;17.35;;;;;;;;;;5102058;28;20870;-81
2022/09/22 01:38:30;;;;;;;17.80;16.90;;;;;;;;;;5101359;28;20187;-81
2022/09/22 01:41:00;;;;;;;18.43;17.43;;;;;;;;;;5101158;28;20187;-81
2022/09/22 01:43:35;;;;;;;17.93;16.93;;;;;;;;;;5101727;28;20460;-81
2022/09/22 01:46:07;;;;;;;18.00;17.00;;;;;;;;;;5101288;28;20426;-81
2022/09/22 01:48:36;;;;;;;18.60;17.70;;;;;;;;;;5101699;28;20206;-80
2022/09/22 01:51:06;;;;;;;17.57;16.57;;;;;;;;;;5100857;28;20209;-81
2022/09/22 01:53:36;;;;;;;20.42;18.58;;;;;;;;;;5100739;28;20999;-81
2022/09/22 01:56:06;;;;;;;18.30;17.30;;;;;;;;;;5100653;28;20198;-80
2022/09/22 01:58:35;;;;;;;17.88;16.83;;;;;;;;;;5101050;28;20205;-81
2022/09/22 02:01:06;;;;;;;19.58;18.38;;;;;;;;;;5100165;28;20205;-81
2022/09/22 02:03:37;;;;;;;18.42;17.42;;;;;;;;;;5100946;28;20218;-81
2022/09/22 02:06:06;;;;;;;18.65;17.58;;;;;;;;;;5099678;28;20225;-81
2022/09/22 02:08:37;;;;;;;18.50;17.40;;;;;;;;;;5100650;28;20214;-80
2022/09/22 02:11:08;;;;;;;20.02;18.70;;;;;;;;;;5100530;28;20942;-81
2022/09/22 02:13:36;;;;;;;18.73;17.38;;;;;;;;;;5100539;28;20264;-81
2022/09/22 02:16:05;;;;;;;18.83;17.63;;;;;;;;;;5099972;28;20206;-80
2022/09/22 02:18:34;;;;;;;18.45;17.35;;;;;;;;;;5100215;28;20435;-81
2022/09/22 02:21:02;;;;;;;21.55;19.90;;;;;;;;;;5100276;28;20209;-81
2022/09/22 02:23:31;;;;;;;18.25;17.35;;;;;;;;;;5099011;28;20233;-81
2022/09/22 02:26:00;;;;;;;18.23;17.23;;;;;;;;;;5101038;28;20221;-81
2022/09/22 02:28:30;;;;;;;18.93;17.83;;;;;;;;;;5101010;28;20216;-81
2022/09/22 02:30:59;;;;;;;20.33;19.13;;;;;;;;;;5099034;28;20910;-81
2022/09/22 02:33:28;;;;;;;18.63;17.60;;;;;;;;;;5100731;28;20230;-81
2022/09/22 02:36:00;;;;;;;18.07;17.17;;;;;;;;;;5100132;28;20453;-81
2022/09/22 02:38:30;;;;;;;17.75;16.85;;;;;;;;;;5100281;28;20418;-81
2022/09/22 02:41:02;;;;;;;18.40;17.40;;;;;;;;;;5099621;28;20201;-81
2022/09/22 02:43:33;;;;;;;18.17;17.10;;;;;;;;;;5099761;28;20232;-81
2022/09/22 02:46:04;;;;;;;18.55;17.30;;;;;;;;;;5100908;28;20475;-81
2022/09/22 02:48:34;;;;;;;18.88;17.80;;;;;;;;;;5099708;28;20200;-81
2022/09/22 02:51:01;;;;;;;21.52;19.70;;;;;;;;;;5099463;28;20187;-81
2022/09/22 02:53:29;;;;;;;18.45;17.45;;;;;;;;;;5099622;28;20227;-81
2022/09/22 02:55:56;;;;;;;18.03;17.23;;;;;;;;;;5100219;28;20203;-81
2022/09/22 02:58:23;;;;;;;18.30;17.05;;;;;;;;;;5100613;28;20444;-81
2022/09/22 03:00:51;;;;;;;18.15;16.92;;;;;;;;;;5100058;28;20209;-81
2022/09/22 03:03:18;;;;;;;16.88;16.08;;;;;;;;;;5100357;28;20240;-81
2022/09/22 03:05:47;;;;;;;17.45;16.45;;;;;;;;;;5100346;28;20225;-81
2022/09/22 03:08:14;;;;;;;18.00;17.10;;;;;;;;;;5100737;28;20204;-81
2022/09/22 03:10:42;;;;;;;17.70;16.80;;;;;;;;;;5100472;28;20208;-81
2022/09/22 03:13:09;;;;;;;18.35;17.25;;;;;;;;;;5099890;28;20316;-80
2022/09/22 03:15:36;;;;;;;18.33;17.42;;;;;;;;;;5100195;28;20202;-81
2022/09/22 03:18:04;;;;;;;18.75;17.67;;;;;;;;;;5100122;28;20206;-81
2022/09/22 03:20:31;;;;;;;17.60;16.80;;;;;;;;;;5100378;28;20208;-81
2022/09/22 03:23:00;;;;;;;18.25;17.35;;;;;;;;;;5099565;28;20241;-81
2022/09/22 03:25:28;;;;;;;18.25;17.20;;;;;;;;;;5099795;28;20221;-81
2022/09/22 03:27:55;;;;;;;19.88;18.55;;;;;;;;;;5100117;28;20211;-81
2022/09/22 03:30:22;;;;;;;18.30;17.30;;;;;;;;;;5100121;28;20201;-80
2022/09/22 03:32:49;;;;;;;19.10;17.63;;;;;;;;;;5098990;28;20225;-80
2022/09/22 03:35:17;;;;;;;20.13;18.60;;;;;;;;;;5101014;28;20459;-81
2022/09/22 03:37:44;;;;;;;19.90;18.58;;;;;;;;;;5104509;28;20525;-81
2022/09/22 03:40:13;;;;;;;18.45;17.38;;;;;;;;;;5104574;28;20227;-81
2022/09/22 03:42:40;;;;;;;18.70;17.65;;;;;;;;;;5103034;28;20232;-81
2022/09/22 03:45:08;;;;;;;18.67;17.60;;;;;;;;;;5104017;28;20225;-80
2022/09/22 03:47:36;;;;;;;18.23;17.37;;;;;;;;;;5103719;28;20707;-81
2022/09/22 03:50:03;;;;;;;19.27;17.88;;;;;;;;;;5103158;28;20467;-81
2022/09/22 03:52:30;;;;;;;17.45;16.65;;;;;;;;;;5103646;28;20222;-81
2022/09/22 03:54:58;;;;;;;17.73;16.83;;;;;;;;;;5103923;28;20212;-80
2022/09/22 03:57:26;;;;;;;17.48;16.60;;;;;;;;;;5103892;28;20819;-81
2022/09/22 03:59:54;;;;;;;18.23;17.33;;;;;;;;;;5103586;28;20197;-81
2022/09/22 04:02:21;;;;;;;18.00;17.10;;;;;;;;;;5102704;28;20233;-81
2022/09/22 04:04:48;;;;;;;17.77;16.90;;;;;;;;;;5103236;28;20203;-81
2022/09/22 04:07:16;;;;;;;17.60;16.70;;;;;;;;;;5103250;28;20205;-81
2022/09/22 04:09:43;;;;;;;17.75;16.85;;;;;;;;;;5102781;28;20212;-80
2022/09/22 04:12:11;;;;;;;17.00;16.20;;;;;;;;;;5102676;28;20280;-80
2022/09/22 04:14:40;;;;;;;17.67;16.77;;;;;;;;;;5103350;28;20202;-81
2022/09/22 04:17:07;;;;;;;17.98;17.05;;;;;;;;;;5104119;28;20204;-81
2022/09/22 04:19:35;;;;;;;17.92;17.02;;;;;;;;;;5102491;28;20207;-81
2022/09/22 04:22:03;;;;;;;17.60;16.70;;;;;;;;;;5101833;28;20249;-81
2022/09/22 04:24:30;;;;;;;18.70;17.67;;;;;;;;;;5102538;28;20215;-80
2022/09/22 04:26:57;;;;;;;18.40;17.08;;;;;;;;;;5102804;28;20661;-81
2022/09/22 04:29:25;;;;;;;19.27;18.02;;;;;;;;;;5102718;28;20205;-81
2022/09/22 04:31:54;;;;;;;18.42;17.42;;;;;;;;;;5102125;28;20202;-81
2022/09/22 04:34:21;;;;;;;18.85;17.75;;;;;;;;;;5102812;28;20220;-81
2022/09/22 04:36:49;;;;;;;18.25;17.27;;;;;;;;;;5102613;28;20206;-81
2022/09/22 04:39:16;;;;;;;18.10;17.20;;;;;;;;;;5103333;28;20554;-81
2022/09/22 04:41:43;;;;;;;18.42;17.42;;;;;;;;;;5105696;28;20212;-81
2022/09/22 04:44:11;;;;;;;19.27;18.27;;;;;;;;;;5109331;28;20201;-81
2022/09/22 04:46:38;;;;;;;19.38;18.08;;;;;;;;;;5107928;28;20227;-81
2022/09/22 04:49:07;;;;;;;18.20;17.20;;;;;;;;;;5108462;28;20201;-81
2022/09/22 04:51:34;;;;;;;18.15;16.98;;;;;;;;;;5108123;28;20213;-81
2022/09/22 04:54:01;;;;;;;18.23;17.23;;;;;;;;;;5107817;28;20229;-81
2022/09/22 04:56:29;;;;;;;18.85;17.85;;;;;;;;;;5104331;28;20548;-81
2022/09/22 04:58:56;;;;;;;19.02;17.92;;;;;;;;;;5102080;28;20214;-81
2022/09/22 05:01:26;;;;;;;20.10;18.90;;;;;;;;;;5100960;28;20760;-81
2022/09/22 05:03:53;;;;;;;19.40;18.30;;;;;;;;;;5101427;28;20268;-81
2022/09/22 05:06:22;;;;;;;19.20;18.10;;;;;;;;;;5101662;28;20221;-81
2022/09/22 05:08:49;;;;;;;19.38;17.88;;;;;;;;;;5101766;28;20216;-81
2022/09/22 05:11:18;;;;;;;18.80;17.80;;;;;;;;;;5101041;28;20208;-81
2022/09/22 05:13:45;;;;;;;19.20;17.90;;;;;;;;;;5099489;28;20712;-78
2022/09/22 05:16:12;;;;;;;18.98;17.85;;;;;;;;;;5097585;28;20466;-79
2022/09/22 05:18:40;;;;;;;22.83;21.05;;;;;;;;;;5098888;28;20240;-78
2022/09/22 05:21:07;;;;;;;19.65;18.55;;;;;;;;;;5098467;28;20207;-79
2022/09/22 05:23:36;;;;;;;18.85;17.63;;;;;;;;;;5098894;28;20244;-79
2022/09/22 05:26:03;;;;;;;20.17;18.83;;;;;;;;;;5098377;28;20692;-79
2022/09/22 05:28:31;;;;;;;19.50;18.50;;;;;;;;;;5099422;28;20205;-79
2022/09/22 05:30:58;;;;;;;21.20;19.30;;;;;;;;;;5098969;28;20612;-79
2022/09/22 05:33:25;;;;;;;19.42;18.23;;;;;;;;;;5101566;28;20442;-83
2022/09/22 05:35:52;;;;;;;19.70;18.60;;;;;;;;;;5083193;28;20555;-77
2022/09/22 05:38:20;;;;;;;19.15;17.95;;;;;;;;;;5077562;28;20195;-81
2022/09/22 05:40:49;;;;;;;19.58;18.20;;;;;;;;;;5078860;28;20213;-79
2022/09/22 05:43:16;;;;;;;18.98;17.90;;;;;;;;;;5076856;28;20240;-77
2022/09/22 05:45:44;;;;;;;19.10;18.00;;;;;;;;;;5077173;28;20230;-77
2022/09/22 05:48:11;;;;;;;20.05;18.65;;;;;;;;;;5077505;28;20574;-77
2022/09/22 05:50:39;;;;;;;19.15;17.92;;;;;;;;;;5077930;28;20220;-82
2022/09/22 05:53:07;;;;;;;19.17;17.98;;;;;;;;;;5095953;28;20231;-81
2022/09/22 05:55:35;;;;;;;18.73;17.63;;;;;;;;;;5084425;28;20217;-80
2022/09/22 05:58:04;;;;;;;19.65;18.50;;;;;;;;;;5082992;28;20203;-80
2022/09/22 06:00:31;;;;;;;21.23;19.63;;;;;;;;;;5077203;28;20189;-83
2022/09/22 06:02:58;;;;;;;19.48;18.45;;;;;;;;;;5075261;28;20230;-75
2022/09/22 06:05:26;;;;;;;19.95;18.63;;;;;;;;;;5075215;28;20682;-76
2022/09/22 06:07:58;;;;;;;18.30;17.30;;;;;;;;;;5075799;28;20213;-80
2022/09/22 06:10:26;;;;;;;18.80;17.70;;;;;;;;;;5074980;28;20233;-77
2022/09/22 06:12:57;;;;;;;19.00;17.80;;;;;;;;;;5073539;28;20230;-77
2022/09/22 06:15:27;;;;;;;18.67;17.58;;;;;;;;;;5073858;28;20185;-76
2022/09/22 06:17:55;;;;;;;18.90;17.67;;;;;;;;;;5075958;28;20242;-82
2022/09/22 06:20:22;;;;;;;18.73;17.83;;;;;;;;;;5074119;28;20230;-83
2022/09/22 06:22:50;;;;;;;19.83;18.60;;;;;;;;;;5074803;28;20314;-79
2022/09/22 06:25:17;;;;;;;17.90;17.10;;;;;;;;;;5075301;28;20198;-76
2022/09/22 06:27:45;;;;;;;19.42;18.15;;;;;;;;;;5073599;28;20665;-77
2022/09/22 06:30:15;;;;;;;19.30;18.20;;;;;;;;;;5074633;28;20207;-77
2022/09/22 06:32:45;;;;;;;19.75;18.00;;;;;;;;;;5074176;28;20234;-82
2022/09/22 06:35:12;;;;;;;19.60;18.40;;;;;;;;;;5075670;28;20212;-77
2022/09/22 06:37:40;;;;;;;19.02;17.70;;;;;;;;;;5072164;28;20635;-79
2022/09/22 06:40:08;;;;;;;18.80;17.80;;;;;;;;;;5074070;28;20210;-79
2022/09/22 06:42:35;;;;;;;19.47;18.00;;;;;;;;;;5076055;28;20577;-80
2022/09/22 06:45:03;;;;;;;18.77;17.50;;;;;;;;;;5076950;28;20453;-80
2022/09/22 06:47:32;;;;;;;18.65;17.30;;;;;;;;;;5076868;28;20822;-80
2022/09/22 06:50:04;;;;;;;26.27;17.67;;;;;;;;;;5077338;28;20216;-79
2022/09/22 06:52:31;;;;;;;18.75;17.75;;;;;;;;;;5073816;28;20718;-77
2022/09/22 06:55:00;;;;;;;19.37;18.27;;;;;;;;;;5073678;28;20209;-78
2022/09/22 06:57:29;;;;;;;18.95;17.75;;;;;;;;;;5075831;28;20978;-78
2022/09/22 06:59:56;;;;;;;19.20;18.08;;;;;;;;;;5074062;28;20214;-77
2022/09/22 07:02:28;;;;;;;18.02;17.02;;;;;;;;;;5073235;28;20222;-78
2022/09/22 07:04:57;;;;;;;18.17;17.27;;;;;;;;;;5074526;28;20277;-78
2022/09/22 07:07:27;;;;;;;18.17;17.17;;;;;;;;;;5076811;28;20466;-78
2022/09/22 07:09:55;;;;;;;18.20;17.10;;;;;;;;;;5077357;28;20785;-79
2022/09/22 07:12:24;;;;;;;19.30;18.20;;;;;;;;;;5080663;28;20446;-79
2022/09/22 07:14:52;;;;;;;19.93;18.60;;;;;;;;;;5081173;28;20229;-80
2022/09/22 07:17:19;;;;;;;19.07;17.87;;;;;;;;;;5080786;28;20445;-78
2022/09/22 07:19:46;;;;;;;18.23;17.13;;;;;;;;;;5078865;28;20505;-77
2022/09/22 07:22:14;;;;;;;19.50;18.13;;;;;;;;;;5079564;28;20492;-80
2022/09/22 07:24:44;;;;;;;18.97;17.67;;;;;;;;;;5080882;28;20525;-80
2022/09/22 07:27:13;;;;;;;19.47;17.90;;;;;;;;;;5080985;28;20517;-80
2022/09/22 07:29:41;;;;;;;17.90;16.77;;;;;;;;;;5081049;28;20434;-81
2022/09/22 07:32:09;;;;;;;18.00;17.00;;;;;;;;;;5080182;28;20555;-80
2022/09/22 07:34:36;;;;;;;19.83;18.67;;;;;;;;;;5081050;28;20928;-80
2022/09/22 07:37:04;;;;;;;18.23;17.13;;;;;;;;;;5081008;28;20776;-80
2022/09/22 07:39:31;;;;;;;18.50;17.30;;;;;;;;;;5080900;28;20452;-81
2022/09/22 07:42:00;;;;;;;18.60;17.40;;;;;;;;;;5080064;28;20460;-80
2022/09/22 07:47:12;;;;;;;17.93;16.93;;;;;;;;;;5082249;28;20483;-82
2022/09/22 07:49:39;;;;;;;18.70;17.70;;;;;;;;;;5080122;28;20472;-85
2022/09/22 07:52:06;;;;;;;18.87;17.87;;;;;;;;;;5081970;28;20447;-84
2022/09/22 07:54:35;;;;;;;18.47;17.40;;;;;;;;;;5081845;28;20469;-82
2022/09/22 07:57:07;;;;;;;19.20;18.03;;;;;;;;;;5076995;28;20449;-78
2022/09/22 07:59:38;;;;;;;18.97;17.70;;;;;;;;;;5077035;28;20409;-78
2022/09/22 08:02:06;;;;;;;18.80;17.47;;;;;;;;;;5075956;28;20472;-77
2022/09/22 08:04:34;;;;;;;18.83;17.63;;;;;;;;;;5076091;28;20468;-78
2022/09/22 08:07:01;;;;;;;19.00;17.90;;;;;;;;;;5076278;28;20512;-78
2022/09/22 08:09:30;;;;;;;18.73;17.60;;;;;;;;;;5076582;28;20426;-78
2022/09/22 08:11:57;;;;;;;21.03;19.20;;;;;;;;;;5076005;28;20453;-78
2022/09/22 08:14:26;;;;;;;19.87;18.47;;;;;;;;;;5076375;28;20460;-78
2022/09/22 08:16:54;;;;;;;18.73;17.63;;;;;;;;;;5076785;28;20484;-78
2022/09/22 08:19:23;;;;;;;18.83;17.73;;;;;;;;;;5076339;28;20445;-78
2022/09/22 08:21:52;;;;;;;19.13;17.73;;;;;;;;;;5074470;28;20442;-79
2022/09/22 08:24:21;;;;;;;18.20;17.10;;;;;;;;;;5075837;28;20447;-77
2022/09/22 08:26:48;;;;;;;19.40;18.33;;;;;;;;;;5076433;28;20471;-78
2022/09/22 08:29:16;;;;;;;19.73;18.27;;;;;;;;;;5076166;28;20453;-78
2022/09/22 08:31:45;;;;;;;18.60;17.50;;;;;;;;;;5075548;28;20424;-80
2022/09/22 08:34:15;;;;;;;18.57;17.40;;;;;;;;;;5075827;28;20983;-78
2022/09/22 08:36:45;;;;;;;19.47;18.20;;;;;;;;;;5075465;28;20440;-78
2022/09/22 08:39:12;;;;;;;18.50;17.37;;;;;;;;;;5076560;28;20437;-78
2022/09/22 08:41:45;;;;;;;18.73;17.73;;;;;;;;;;5075612;28;20452;-78
2022/09/22 08:44:17;;;;;;;19.47;18.27;;;;;;;;;;5076511;28;20438;-78
2022/09/22 08:46:47;;;;;;;19.53;18.13;;;;;;;;;;5075994;28;20488;-78
2022/09/22 08:52:05;;;;;;;19.60;18.50;;;;;;;;;;5075158;28;20519;-78
2022/09/22 08:54:34;;;;;;;20.10;18.70;;;;;;;;;;5075992;28;20443;-78
2022/09/22 08:57:10;;;;;;;20.37;19.17;;;;;;;;;;5075841;28;20901;-78
2022/09/22 08:59:42;;;;;;;19.97;18.53;;;;;;;;;;5076162;28;20519;-81
2022/09/22 09:02:27;;;;;;;19.23;18.03;;;;;;;;;;5078368;28;20489;-83
2022/09/22 09:05:04;;;;;;;19.57;18.40;;;;;;;;;;5081279;28;20453;-84
2022/09/22 09:07:42;;;;;;;20.40;18.90;;;;;;;;;;5077964;28;20497;-78
2022/09/22 09:10:20;;;;;;;20.53;19.20;;;;;;;;;;5076562;28;20434;-81
2022/09/22 09:12:56;;;;;;;19.90;18.70;;;;;;;;;;5082298;28;20485;-85
2022/09/22 09:15:42;;;;;;;19.60;18.40;;;;;;;;;;5083456;28;20435;-85
2022/09/22 09:18:14;;;;;;;20.20;19.00;;;;;;;;;;5077058;28;20449;-79
2022/09/22 09:20:43;;;;;;;20.07;19.00;;;;;;;;;;5076533;28;20405;-78
2022/09/22 09:23:14;;;;;;;19.63;18.63;;;;;;;;;;5077748;28;20499;-88
2022/09/22 09:25:43;;;;;;;20.10;19.00;;;;;;;;;;5079970;28;20532;-79
2022/09/22 09:28:13;;;;;;;21.73;20.43;;;;;;;;;;5075104;28;20484;-79
2022/09/22 09:30:44;;;;;;;20.50;19.30;;;;;;;;;;5078762;28;20438;-81
2022/09/22 09:33:18;;;;;;;20.37;19.17;;;;;;;;;;5078288;28;20466;-80
2022/09/22 09:35:47;;;;;;;19.70;18.60;;;;;;;;;;5078393;28;20500;-80
2022/09/22 09:38:16;;;;;;;20.07;18.87;;;;;;;;;;5078874;28;20434;-79
2022/09/22 09:40:53;;;;;;;20.90;19.70;;;;;;;;;;5075048;28;20435;-81
2022/09/22 09:43:22;;;;;;;21.23;19.70;;;;;;;;;;5079941;28;20481;-85
2022/09/22 09:45:56;;;;;;;21.20;19.93;;;;;;;;;;5079298;28;20430;-81
2022/09/22 09:48:31;;;;;;;21.03;19.83;;;;;;;;;;5079277;28;20492;-82
2022/09/22 09:51:02;;;;;;;20.60;19.50;;;;;;;;;;5078467;28;20441;-82
2022/09/22 09:53:32;;;;;;;20.33;19.17;;;;;;;;;;5078436;28;20489;-82
2022/09/22 09:55:59;;;;;;;20.87;19.77;;;;;;;;;;5079296;28;20781;-82
2022/09/22 10:01:13;;;;;;;22.10;20.83;;;;;;;;;;5078536;28;20514;-83
2022/09/22 10:03:45;;;;;;;21.97;20.57;;;;;;;;;;5078493;28;20460;-84
2022/09/22 10:06:13;;;;;;;21.00;19.80;;;;;;;;;;5082049;28;20534;-87
2022/09/22 10:08:45;;;;;;;20.53;19.53;;;;;;;;;;5078549;28;20485;-87
2022/09/22 10:11:13;;;;;;;21.73;20.53;;;;;;;;;;5080000;28;20461;-87
2022/09/22 10:13:42;;;;;;;23.90;22.17;;;;;;;;;;5079466;28;20481;-87
2022/09/22 10:16:32;;;;;;;22.00;20.80;;;;;;;;;;5080389;28;20451;-87
2022/09/22 10:19:22;;;;;;;23.47;21.93;;;;;;;;;;5081090;28;20500;-87
2022/09/22 10:21:50;;;;;;;22.37;20.87;;;;;;;;;;5079552;28;20440;-87
2022/09/22 10:24:28;;;;;;;22.47;21.07;;;;;;;;;;5076986;28;20456;-88
2022/09/22 10:26:56;;;;;;;23.00;21.70;;;;;;;;;;5073857;28;20456;-76
2022/09/22 10:29:24;;;;;;;21.73;20.63;;;;;;;;;;5073752;28;20450;-76
2022/09/22 10:32:02;;;;;;;25.43;23.63;;;;;;;;;;5072144;28;20453;-76
2022/09/22 10:34:31;;;;;;;22.77;21.47;;;;;;;;;;5074121;28;20465;-75
2022/09/22 10:36:59;;;;;;;22.73;21.53;;;;;;;;;;5073051;28;20443;-78
2022/09/22 10:39:31;;;;;;;22.00;20.80;;;;;;;;;;5073951;28;20450;-78
2022/09/22 10:42:00;;;;;;;22.30;21.03;;;;;;;;;;5073254;28;20438;-77
2022/09/22 10:44:30;;;;;;;21.93;20.50;;;;;;;;;;5074001;28;20964;-80
2022/09/22 10:47:18;;;;;;;21.57;20.40;;;;;;;;;;5075327;28;20448;-74
2022/09/22 10:49:56;;;;;;;22.93;21.63;;;;;;;;;;5069802;28;20914;-77
2022/09/22 10:52:27;;;;;;;22.37;21.17;;;;;;;;;;5072998;28;20540;-77
2022/09/22 10:55:10;;;;;;;22.80;21.57;;;;;;;;;;5073684;28;20417;-77
2022/09/22 10:57:52;;;;;;;21.80;20.60;;;;;;;;;;5072454;28;20477;-78
2022/09/22 11:00:20;;;;;;;22.13;20.83;;;;;;;;;;5069548;28;20449;-78
2022/09/22 11:03:10;;;;;;;22.53;21.13;;;;;;;;;;5079527;28;20470;-81
2022/09/22 11:14:14;;;;;;;21.77;20.63;;;;;;;;;;5083455;28;20407;-80
2022/09/22 11:16:54;;;;;;;23.33;21.50;;;;;;;;;;5079343;28;20443;-77
2022/09/22 11:19:32;;;;;;;21.70;20.50;;;;;;;;;;5073467;28;20460;-77
2022/09/22 11:22:08;;;;;;;22.23;20.93;;;;;;;;;;5076020;28;20457;-79
2022/09/22 11:24:45;;;;;;;21.43;20.33;;;;;;;;;;5074717;28;20520;-79
2022/09/22 11:27:20;;;;;;;21.87;20.77;;;;;;;;;;5075262;28;20486;-79
2022/09/22 11:30:02;;;;;;;22.00;20.80;;;;;;;;;;5075413;28;20441;-78
2022/09/22 11:32:39;;;;;;;23.40;22.00;;;;;;;;;;5072225;28;20473;-79
2022/09/22 11:35:23;;;;;;;23.10;21.77;;;;;;;;;;5080234;28;20432;-79
2022/09/22 11:37:55;;;;;;;21.43;20.33;;;;;;;;;;5075168;28;20421;-79
2022/09/22 11:40:41;;;;;;;22.27;21.07;;;;;;;;;;5074791;28;20476;-79
2022/09/22 11:43:16;;;;;;;23.10;21.80;;;;;;;;;;5074418;28;20538;-79
2022/09/22 11:45:49;;;;;;;23.80;22.57;;;;;;;;;;5075051;28;20426;-79
2022/09/22 11:48:28;;;;;;;22.97;21.67;;;;;;;;;;5075145;28;20568;-79
2022/09/22 11:51:05;;;;;;;22.50;21.10;;;;;;;;;;5074938;28;20430;-79
2022/09/22 11:53:47;;;;;;;22.23;21.03;;;;;;;;;;5076428;28;20968;-79
2022/09/22 11:56:31;;;;;;;22.80;21.33;;;;;;;;;;5077034;28;20434;-80
2022/09/22 11:59:03;;;;;;;23.67;22.37;;;;;;;;;;5081805;28;20434;-81
2022/09/22 12:01:32;;;;;;;22.73;21.53;;;;;;;;;;5080307;28;20447;-81
2022/09/22 12:04:06;;;;;;;23.40;22.10;;;;;;;;;;5080796;28;20579;-81
2022/09/22 12:06:37;;;;;;;23.83;22.63;;;;;;;;;;5081351;28;20811;-82
2022/09/22 12:09:11;;;;;;;23.07;21.77;;;;;;;;;;5080785;28;20473;-82
2022/09/22 12:11:39;;;;;;;22.93;21.63;;;;;;;;;;5080498;28;20458;-82
2022/09/22 12:14:08;;;;;;;23.07;21.77;;;;;;;;;;5081048;28;20544;-83
2022/09/22 12:16:40;;;;;;;21.80;20.60;;;;;;;;;;5080833;28;20489;-82
2022/09/22 12:19:16;;;;;;;22.90;21.50;;;;;;;;;;5080847;28;20446;-82
2022/09/22 12:21:55;;;;;;;22.60;21.30;;;;;;;;;;5080877;28;20488;-82
2022/09/22 12:24:24;;;;;;;22.47;21.17;;;;;;;;;;5080839;28;20820;-82
2022/09/22 12:26:52;;;;;;;23.03;21.73;;;;;;;;;;5080834;28;20464;-83
2022/09/22 12:29:24;;;;;;;22.73;21.03;;;;;;;;;;5080711;28;20541;-82
2022/09/22 12:31:54;;;;;;;22.57;21.27;;;;;;;;;;5080251;28;20497;-83
2022/09/22 12:34:22;;;;;;;24.03;22.43;;;;;;;;;;5081576;28;20485;-82
2022/09/22 12:36:52;;;;;;;23.07;21.67;;;;;;;;;;5081332;28;20451;-83
2022/09/22 12:39:21;;;;;;;22.50;21.20;;;;;;;;;;5080972;28;20442;-83
2022/09/22 12:41:51;;;;;;;24.10;22.50;;;;;;;;;;5080204;28;20454;-83
2022/09/22 12:44:20;;;;;;;21.47;20.37;;;;;;;;;;5081533;28;20538;-79
2022/09/22 12:46:48;;;;;;;23.60;22.20;;;;;;;;;;5079409;28;20467;-83
2022/09/22 12:49:17;;;;;;;21.73;20.63;;;;;;;;;;5080623;28;20458;-82
2022/09/22 12:51:44;;;;;;;22.23;21.00;;;;;;;;;;5080045;28;20453;-83
2022/09/22 12:54:36;;;;;;;22.10;20.90;;;;;;;;;;5080634;28;20805;-82
2022/09/22 12:57:21;;;;;;;21.83;20.73;;;;;;;;;;5065732;28;20432;-82
2022/09/22 12:59:56;;;;;;;21.40;20.20;;;;;;;;;;5080706;28;20432;-82
2022/09/22 13:02:28;;;;;;;22.50;21.00;;;;;;;;;;5079885;28;20446;-82
2022/09/22 13:05:14;;;;;;;22.07;20.77;;;;;;;;;;5080666;28;20415;-82
2022/09/22 13:07:42;;;;;;;22.10;20.90;;;;;;;;;;5079601;28;20486;-83
2022/09/22 13:10:28;;;;;;;21.43;20.13;;;;;;;;;;5080813;28;20835;-83
2022/09/22 13:13:20;;;;;;;21.30;20.10;;;;;;;;;;5079807;28;20463;-84
2022/09/22 13:15:58;;;;;;;21.67;20.47;;;;;;;;;;5079495;28;20464;-84
2022/09/22 13:18:30;;;;;;;20.77;19.57;;;;;;;;;;5079855;28;20428;-83
2022/09/22 13:20:57;;;;;;;22.77;21.17;;;;;;;;;;5079819;28;20444;-82
2022/09/22 13:23:25;;;;;;;24.17;22.63;;;;;;;;;;5079970;28;20457;-83
2022/09/22 13:25:52;;;;;;;21.50;20.20;;;;;;;;;;5079965;28;20530;-82
2022/09/22 13:28:21;;;;;;;22.37;20.90;;;;;;;;;;5079874;28;20481;-83
2022/09/22 13:30:59;;;;;;;21.77;20.47;;;;;;;;;;5080238;28;20447;-82
2022/09/22 13:33:27;;;;;;;21.60;20.27;;;;;;;;;;5079399;28;20532;-82
2022/09/22 13:36:02;;;;;;;21.57;20.33;;;;;;;;;;5080099;28;20457;-84
2022/09/22 13:38:30;;;;;;;21.87;20.73;;;;;;;;;;5079866;28;20427;-82
2022/09/22 13:40:58;;;;;;;22.20;20.80;;;;;;;;;;5079564;28;20457;-84
2022/09/22 13:43:30;;;;;;;21.53;20.33;;;;;;;;;;5079820;28;20544;-82
2022/09/22 13:45:58;;;;;;;21.93;20.53;;;;;;;;;;5080747;28;20470;-84
2022/09/22 13:48:27;;;;;;;22.30;21.00;;;;;;;;;;5079740;28;20471;-83
2022/09/22 13:50:57;;;;;;;21.20;20.00;;;;;;;;;;5079072;28;20474;-84
2022/09/22 13:53:24;;;;;;;22.13;20.93;;;;;;;;;;5080222;28;20462;-83
2022/09/22 13:55:52;;;;;;;21.77;20.47;;;;;;;;;;5079239;28;20428;-83
2022/09/22 13:58:23;;;;;;;20.87;19.67;;;;;;;;;;5080161;28;20443;-83
2022/09/22 14:00:56;;;;;;;20.67;19.57;;;;;;;;;;5079045;28;20393;-83
2022/09/22 14:03:23;;;;;;;20.97;19.77;;;;;;;;;;5078905;28;20519;-83
2022/09/22 14:05:51;;;;;;;21.63;20.03;;;;;;;;;;5079262;28;20448;-83
2022/09/22 14:08:19;;;;;;;20.93;19.53;;;;;;;;;;5080443;28;20878;-83
2022/09/22 14:10:48;;;;;;;21.23;20.13;;;;;;;;;;5079131;28;20418;-83
2022/09/22 14:13:34;;;;;;;22.07;20.87;;;;;;;;;;5078434;28;20514;-82
2022/09/22 14:16:08;;;;;;;21.10;19.90;;;;;;;;;;5079031;28;20443;-83
2022/09/22 14:18:40;;;;;;;22.93;21.73;;;;;;;;;;5079656;28;20732;-82
2022/09/22 14:21:09;;;;;;;22.00;20.60;;;;;;;;;;5078284;28;20439;-83
2022/09/22 14:23:37;;;;;;;22.60;21.10;;;;;;;;;;5079212;28;20545;-82
2022/09/22 14:26:16;;;;;;;22.03;20.37;;;;;;;;;;5080720;28;20448;-85
2022/09/22 14:28:43;;;;;;;22.40;21.00;;;;;;;;;;5079381;28;20441;-83
2022/09/22 14:31:16;;;;;;;22.83;21.60;;;;;;;;;;5079722;28;20450;-82
2022/09/22 14:33:44;;;;;;;21.20;19.93;;;;;;;;;;5079940;28;20444;-82
2022/09/22 14:36:14;;;;;;;20.23;19.10;;;;;;;;;;5080055;28;20453;-83
2022/09/22 14:38:41;;;;;;;20.67;19.47;;;;;;;;;;5079680;28;20932;-83
2022/09/22 14:41:21;;;;;;;21.17;19.63;;;;;;;;;;5079957;28;20865;-83
2022/09/22 14:43:49;;;;;;;20.47;19.27;;;;;;;;;;5080809;28;20821;-83
2022/09/22 14:46:30;;;;;;;21.40;19.93;;;;;;;;;;5080498;28;20451;-83
2022/09/22 14:48:57;;;;;;;21.40;20.10;;;;;;;;;;5079478;28;20443;-83
2022/09/22 14:51:26;;;;;;;21.87;20.57;;;;;;;;;;5079632;28;20431;-83